Nearby METAR Reports

 

LBSF - Sofia (observato, Bulgaria
Distance from station: ЮИ 5km
Актуализирано: 19/09/2018 22:30
Тихо и ясно
Тихо и ясно
 Вятър от ИЮИ
Вятър: ИЮИ 9 km/h
Температура: 17°C
Точка на оросяване: 9°C
Влажност: 59%
Барометър: 1023 hPa
Обобщение: Тихо и ясно
Visibility: greater than 10 km
2018/09/19 19:30 LBSF 191930Z 12005KT CAVOK 17/09 Q1023 NOSIG